Time;durP1;ratioP1;P1;durP2;ratioP2;P2;SDS_P1;SDS_P2;PMS_P1;PMS_P2;Temp;Humidity;BMP_temperature;BMP_pressure;BME280_temperature;BME280_humidity;BME280_pressure;Samples;Min_cycle;Max_cycle;Signal;HPM_P1;HPM_P2
2021/11/25 00:00:07;;;;;;;93.03;45.25;;;;;;;0.57;98.33;101014.88;5040177;28;20031;-69
2021/11/25 00:02:32;;;;;;;77.93;41.10;;;;;;;0.64;98.25;101015.53;5044717;28;20032;-67
2021/11/25 00:04:58;;;;;;;93.70;43.38;;;;;;;0.64;97.93;101004.97;5049117;28;20022;-67
2021/11/25 00:07:23;;;;;;;85.85;41.70;;;;;;;0.57;98.46;100996.38;5046532;28;20033;-67
2021/11/25 00:09:50;;;;;;;78.25;42.97;;;;;;;0.64;98.95;100997.88;5038927;28;20047;-67
2021/11/25 00:12:16;;;;;;;86.82;43.53;;;;;;;0.75;99.23;101010.69;5038438;28;20448;-68
2021/11/25 00:14:41;;;;;;;85.38;43.75;;;;;;;0.70;99.51;100994.16;5051482;28;20021;-68
2021/11/25 00:17:07;;;;;;;83.97;42.70;;;;;;;0.81;99.86;101000.75;5026029;28;20037;-68
2021/11/25 00:19:32;;;;;;;83.93;43.38;;;;;;;0.86;99.81;101003.22;5047235;28;20079;-68
2021/11/25 00:21:58;;;;;;;88.22;42.25;;;;;;;0.90;100.00;101003.06;5031393;28;20335;-68
2021/11/25 00:24:23;;;;;;;84.88;41.75;;;;;;;0.97;100.00;101004.53;5031544;28;20039;-68
2021/11/25 00:26:49;;;;;;;80.80;42.30;;;;;;;1.02;100.00;101005.25;5051010;28;20040;-68
2021/11/25 00:29:14;;;;;;;77.10;40.00;;;;;;;1.06;100.00;100998.91;5044618;28;20043;-68
2021/11/25 00:31:40;;;;;;;74.78;38.63;;;;;;;1.16;100.00;101002.09;5036588;28;20108;-68
2021/11/25 00:34:05;;;;;;;71.70;36.85;;;;;;;1.25;100.00;100999.06;5035767;28;20086;-67
2021/11/25 00:36:31;;;;;;;70.30;36.70;;;;;;;1.31;100.00;100997.06;5050926;28;20021;-68
2021/11/25 00:38:56;;;;;;;73.50;38.25;;;;;;;1.43;100.00;100999.22;5050760;28;20036;-68
2021/11/25 00:41:22;;;;;;;71.47;38.70;;;;;;;1.47;100.00;100992.00;5045551;28;20036;-68
2021/11/25 00:43:47;;;;;;;78.07;39.90;;;;;;;1.55;100.00;101000.50;5038544;28;20033;-68
2021/11/25 00:46:13;;;;;;;71.68;38.28;;;;;;;1.62;100.00;101001.97;5031085;28;20071;-68
2021/11/25 00:48:39;;;;;;;71.13;39.20;;;;;;;1.64;100.00;100985.13;5037214;28;20120;-68
2021/11/25 00:51:04;;;;;;;71.97;37.97;;;;;;;1.76;100.00;100995.22;5038220;28;20025;-68
2021/11/25 00:53:30;;;;;;;68.70;36.10;;;;;;;1.81;100.00;100987.94;5027334;28;20036;-68
2021/11/25 00:55:55;;;;;;;70.43;36.58;;;;;;;1.77;100.00;100983.69;5050350;28;20025;-68
2021/11/25 00:58:21;;;;;;;66.63;35.45;;;;;;;1.90;100.00;100987.56;5042579;28;20064;-68
2021/11/25 01:00:47;;;;;;;68.45;37.58;;;;;;;1.92;100.00;100983.06;5030808;28;20036;-68
2021/11/25 01:03:14;;;;;;;65.25;35.83;;;;;;;2.01;100.00;100980.03;5015745;28;20081;-68
2021/11/25 01:05:40;;;;;;;71.20;37.53;;;;;;;2.04;100.00;100976.41;5043628;28;20018;-68
2021/11/25 01:08:06;;;;;;;74.00;38.58;;;;;;;2.11;100.00;100969.91;5030290;28;20112;-68
2021/11/25 01:10:32;;;;;;;71.45;36.90;;;;;;;2.13;99.85;100960.13;5037434;28;20111;-68
2021/11/25 01:12:58;;;;;;;67.80;34.97;;;;;;;2.23;99.96;100964.09;5050087;28;20035;-68
2021/11/25 01:15:29;;;;;;;67.63;35.17;;;;;;;2.24;99.70;100961.38;5036848;28;20021;-68
2021/11/25 01:18:13;;;;;;;70.35;35.55;;;;;;;2.26;99.15;100956.03;5032695;28;20164;-68
2021/11/25 01:20:41;;;;;;;65.20;34.63;;;;;;;2.34;98.99;100968.00;5036364;28;20028;-68
2021/11/25 01:23:10;;;;;;;64.50;33.42;;;;;;;2.39;98.45;100966.00;5032152;28;20037;-68
2021/11/25 01:25:36;;;;;;;63.17;34.10;;;;;;;2.43;98.15;100959.63;5034705;28;20044;-68
2021/11/25 01:28:02;;;;;;;64.78;34.90;;;;;;;2.44;98.01;100952.56;5021712;28;20025;-68
2021/11/25 01:30:28;;;;;;;57.42;32.25;;;;;;;2.46;98.00;100949.84;5027253;28;20397;-68
2021/11/25 01:32:54;;;;;;;60.83;34.45;;;;;;;2.54;97.39;100950.38;5034319;28;20026;-68
2021/11/25 01:35:19;;;;;;;64.88;33.63;;;;;;;2.56;97.17;100951.16;5037852;28;20041;-68
2021/11/25 01:37:45;;;;;;;56.55;31.48;;;;;;;2.54;96.86;100932.69;5049052;28;20504;-68
2021/11/25 01:40:13;;;;;;;55.95;31.60;;;;;;;2.60;96.39;100939.47;5040617;28;20045;-68
2021/11/25 01:42:43;;;;;;;59.60;32.88;;;;;;;2.70;96.10;100946.94;5039510;28;20397;-68
2021/11/25 01:45:11;;;;;;;55.55;31.80;;;;;;;2.75;95.80;100944.09;5040053;28;20377;-68
2021/11/25 01:47:39;;;;;;;59.10;33.78;;;;;;;2.77;95.50;100945.72;5032395;28;20029;-68
2021/11/25 01:50:05;;;;;;;61.47;30.88;;;;;;;2.81;94.74;100947.31;5041524;28;20033;-68
2021/11/25 01:52:30;;;;;;;55.92;31.95;;;;;;;2.79;94.76;100932.41;5038397;28;20036;-68
2021/11/25 01:54:56;;;;;;;59.28;31.48;;;;;;;2.87;94.77;100930.28;5029743;28;20041;-68
2021/11/25 01:57:21;;;;;;;60.25;32.35;;;;;;;2.83;94.17;100915.47;5029857;28;20393;-68
2021/11/25 01:59:47;;;;;;;56.88;30.23;;;;;;;2.92;94.22;100923.84;5049203;28;20074;-68
2021/11/25 02:02:13;;;;;;;58.95;30.92;;;;;;;2.90;94.07;100925.69;5036914;28;20037;-68
2021/11/25 02:04:38;;;;;;;61.72;33.45;;;;;;;2.94;93.25;100931.72;5029385;28;20027;-68
2021/11/25 02:07:04;;;;;;;59.13;32.42;;;;;;;2.95;93.26;100917.53;5036969;28;20024;-68
2021/11/25 02:09:30;;;;;;;60.70;33.50;;;;;;;2.94;93.08;100910.53;5034657;28;20096;-68
2021/11/25 02:11:56;;;;;;;59.28;32.60;;;;;;;2.91;92.91;100900.06;5032067;28;20033;-68
2021/11/25 02:14:21;;;;;;;63.22;31.25;;;;;;;2.96;92.60;100892.78;5040351;28;20037;-68
2021/11/25 02:16:49;;;;;;;58.03;32.13;;;;;;;3.03;92.60;100896.84;5034394;28;20025;-68
2021/11/25 02:19:16;;;;;;;60.17;32.53;;;;;;;3.07;92.58;100891.31;5039666;28;20385;-68
2021/11/25 02:21:42;;;;;;;61.78;33.25;;;;;;;3.09;92.60;100893.91;5041309;28;20025;-68
2021/11/25 02:24:08;;;;;;;60.80;32.53;;;;;;;3.12;93.06;100896.38;5036991;28;20025;-68
2021/11/25 02:26:33;;;;;;;66.50;33.63;;;;;;;3.10;92.84;100893.84;5042786;28;20473;-68
2021/11/25 02:28:59;;;;;;;59.03;33.78;;;;;;;3.09;92.73;100880.66;5043392;28;20548;-68
2021/11/25 02:31:24;;;;;;;62.72;34.40;;;;;;;3.14;92.61;100887.44;5034362;28;20040;-68
2021/11/25 02:33:50;;;;;;;59.35;32.53;;;;;;;3.16;92.97;100879.41;5034382;28;20519;-68
2021/11/25 02:36:16;;;;;;;61.30;33.55;;;;;;;3.17;92.73;100883.78;5033379;28;20024;-68
2021/11/25 02:38:42;;;;;;;64.07;33.70;;;;;;;3.16;93.21;100869.66;5048844;28;20507;-68
2021/11/25 02:41:08;;;;;;;65.03;32.90;;;;;;;3.13;93.24;100863.66;5024462;28;20072;-68
2021/11/25 02:43:35;;;;;;;65.88;33.83;;;;;;;3.20;92.88;100870.38;5037661;28;20094;-68
2021/11/25 02:46:06;;;;;;;58.47;33.60;;;;;;;3.17;93.45;100860.78;5042841;28;20017;-68
2021/11/25 02:48:39;;;;;;;63.60;33.88;;;;;;;3.11;93.46;100845.19;5039283;28;20052;-68
2021/11/25 02:51:06;;;;;;;65.60;35.92;;;;;;;3.19;93.60;100858.06;5047566;28;20495;-68
2021/11/25 02:53:33;;;;;;;67.28;34.80;;;;;;;3.22;93.34;100863.22;5045700;28;20016;-68
2021/11/25 02:56:02;;;;;;;68.75;37.13;;;;;;;3.22;93.73;100852.63;5048252;28;20029;-67
2021/11/25 02:58:28;;;;;;;65.78;34.45;;;;;;;3.25;93.88;100852.44;5038445;28;20412;-68
2021/11/25 03:00:56;;;;;;;62.83;33.97;;;;;;;3.25;93.93;100848.00;5042702;28;20028;-68
2021/11/25 03:03:21;;;;;;;62.92;33.25;;;;;;;3.25;93.89;100844.50;5039456;28;20491;-68
2021/11/25 03:05:49;;;;;;;62.95;33.38;;;;;;;3.26;93.87;100844.41;5038629;28;20044;-68
2021/11/25 03:08:16;;;;;;;59.30;33.28;;;;;;;3.29;94.01;100830.19;5044042;28;20029;-69
2021/11/25 03:10:57;;;;;;;60.55;33.90;;;;;;;3.28;94.02;100831.97;5040874;28;20105;-68
2021/11/25 03:13:23;;;;;;;63.33;33.72;;;;;;;3.31;93.78;100837.09;5031977;28;20062;-68
2021/11/25 03:15:50;;;;;;;66.03;35.13;;;;;;;3.29;93.55;100824.88;5042795;28;20022;-68
2021/11/25 03:18:15;;;;;;;63.78;34.33;;;;;;;3.33;93.41;100826.44;5041735;28;20032;-68
2021/11/25 03:20:43;;;;;;;64.97;34.83;;;;;;;3.35;93.60;100832.53;5034191;28;20025;-68
2021/11/25 03:23:10;;;;;;;65.80;32.85;;;;;;;3.38;93.64;100822.59;5047808;28;20021;-68
2021/11/25 03:25:37;;;;;;;65.28;34.17;;;;;;;3.39;93.56;100818.19;5040855;28;20021;-68
2021/11/25 03:28:03;;;;;;;65.53;34.97;;;;;;;3.39;93.65;100821.66;5030119;28;20021;-68
2021/11/25 03:30:30;;;;;;;69.13;34.38;;;;;;;3.35;93.33;100808.66;5030161;28;20500;-68
2021/11/25 03:32:55;;;;;;;71.40;36.00;;;;;;;3.41;93.16;100813.63;5031921;28;20017;-68
2021/11/25 03:35:21;;;;;;;67.75;35.95;;;;;;;3.40;93.58;100809.28;5030242;28;20036;-68
2021/11/25 03:37:46;;;;;;;66.40;34.13;;;;;;;3.43;93.31;100801.16;5030354;28;20111;-68
2021/11/25 03:40:12;;;;;;;67.57;35.17;;;;;;;3.42;93.10;100797.66;5031702;28;20057;-68
2021/11/25 03:42:38;;;;;;;68.68;35.90;;;;;;;3.42;92.82;100791.50;5032645;28;20031;-68
2021/11/25 03:45:06;;;;;;;66.55;36.13;;;;;;;3.46;93.10;100796.59;5031085;28;20037;-68
2021/11/25 03:47:31;;;;;;;64.47;34.95;;;;;;;3.43;93.63;100788.78;5029926;28;20052;-68
2021/11/25 03:49:57;;;;;;;71.93;37.33;;;;;;;3.47;93.04;100797.41;5032567;28;20488;-68
2021/11/25 03:52:22;;;;;;;71.30;36.97;;;;;;;3.44;92.91;100782.53;5029663;28;20528;-68
2021/11/25 03:54:48;;;;;;;68.00;35.65;;;;;;;3.36;93.36;100765.31;5013910;28;20090;-68
2021/11/25 03:57:14;;;;;;;73.53;36.80;;;;;;;3.45;93.22;100773.63;5027854;28;20516;-68
2021/11/25 03:59:39;;;;;;;66.97;36.28;;;;;;;3.48;92.92;100767.34;5022436;28;20033;-68
2021/11/25 04:02:05;;;;;;;68.78;36.10;;;;;;;3.45;92.80;100765.69;5030694;28;20040;-68
2021/11/25 04:04:31;;;;;;;74.07;37.47;;;;;;;3.41;93.30;100748.22;5028513;28;20032;-68
2021/11/25 04:06:56;;;;;;;70.50;36.55;;;;;;;3.47;93.26;100757.66;5042385;28;20033;-68
2021/11/25 04:09:22;;;;;;;73.25;37.95;;;;;;;3.47;93.56;100760.28;5030360;28;20060;-68
2021/11/25 04:11:47;;;;;;;68.03;36.08;;;;;;;3.46;93.72;100755.94;5027454;28;20030;-69
2021/11/25 04:14:12;;;;;;;68.22;36.38;;;;;;;3.49;93.56;100751.34;5038230;28;20021;-68
2021/11/25 04:16:38;;;;;;;73.97;37.53;;;;;;;3.46;93.57;100742.69;5027439;28;20413;-68
2021/11/25 04:19:03;;;;;;;69.63;36.90;;;;;;;3.49;93.38;100746.06;5040385;28;20030;-68
2021/11/25 04:21:29;;;;;;;73.55;38.28;;;;;;;3.39;93.38;100722.75;5038168;28;20555;-68
2021/11/25 04:23:54;;;;;;;66.78;37.35;;;;;;;3.49;93.47;100730.16;5027694;28;20068;-68
2021/11/25 04:26:20;;;;;;;71.03;37.42;;;;;;;3.52;93.03;100740.56;5034749;28;20017;-68
2021/11/25 04:28:46;;;;;;;70.03;38.38;;;;;;;3.48;93.44;100730.22;5030869;28;20031;-68
2021/11/25 04:36:40;;;;;;;68.90;36.75;;;;;;;3.49;93.14;100722.19;5046339;28;20048;-68
2021/11/25 04:39:08;;;;;;;68.40;36.75;;;;;;;3.50;93.12;100725.66;5017023;28;20566;-67
2021/11/25 04:41:34;;;;;;;71.28;37.03;;;;;;;3.52;93.39;100729.94;5044831;28;20572;-68
2021/11/25 04:43:59;;;;;;;75.43;37.92;;;;;;;3.44;93.51;100716.25;5029726;28;20112;-68
2021/11/25 04:46:25;;;;;;;69.15;36.97;;;;;;;3.52;93.56;100739.72;5044994;28;20017;-68
2021/11/25 04:48:51;;;;;;;67.93;34.22;;;;;;;3.50;93.61;100725.66;5048547;28;20033;-68
2021/11/25 04:51:17;;;;;;;67.85;37.03;;;;;;;3.53;93.27;100741.41;5046500;28;20033;-68
2021/11/25 04:53:42;;;;;;;72.05;37.78;;;;;;;3.46;93.51;100725.00;5030812;28;20087;-68
2021/11/25 04:56:08;;;;;;;73.47;37.35;;;;;;;3.51;93.61;100732.72;5030797;28;20057;-68
2021/11/25 04:58:33;;;;;;;74.15;37.63;;;;;;;3.47;93.46;100728.47;5033764;28;20029;-68
2021/11/25 05:00:59;;;;;;;69.22;35.78;;;;;;;3.54;93.75;100732.53;5048080;28;20036;-68
2021/11/25 05:03:25;;;;;;;71.18;35.95;;;;;;;3.52;93.64;100722.00;5050139;28;20106;-68
2021/11/25 05:05:51;;;;;;;71.38;36.53;;;;;;;3.49;93.68;100714.22;5036342;28;20044;-68
2021/11/25 05:08:16;;;;;;;67.53;35.20;;;;;;;3.53;93.80;100717.56;5042704;28;20100;-68
2021/11/25 05:10:42;;;;;;;71.88;37.63;;;;;;;3.52;93.48;100714.03;5040043;28;20048;-68
2021/11/25 05:13:08;;;;;;;68.80;35.63;;;;;;;3.57;93.43;100716.44;5024027;28;20037;-68
2021/11/25 05:15:34;;;;;;;72.25;37.67;;;;;;;3.60;93.30;100718.94;5046525;28;20029;-68
2021/11/25 05:18:00;;;;;;;66.63;36.20;;;;;;;3.59;93.56;100715.47;5037007;28;20025;-68
2021/11/25 05:20:25;;;;;;;65.22;35.00;;;;;;;3.55;93.12;100710.41;5036606;28;20095;-68
2021/11/25 05:22:51;;;;;;;65.50;35.33;;;;;;;3.59;93.04;100715.47;5044273;28;20033;-68
2021/11/25 05:25:18;;;;;;;67.85;34.47;;;;;;;3.59;93.31;100712.81;5045832;28;20556;-68
2021/11/25 05:27:45;;;;;;;67.78;37.30;;;;;;;3.57;93.34;100714.66;5050250;28;20108;-68
2021/11/25 05:30:12;;;;;;;71.00;36.22;;;;;;;3.61;93.62;100718.03;5041917;28;20104;-67
2021/11/25 05:32:38;;;;;;;69.82;35.97;;;;;;;3.59;93.32;100699.56;5028025;28;20485;-67
2021/11/25 05:35:05;;;;;;;67.72;35.05;;;;;;;3.61;93.72;100705.59;5040069;28;20096;-67
2021/11/25 05:37:30;;;;;;;68.93;35.97;;;;;;;3.62;93.71;100698.50;5044372;28;20036;-67
2021/11/25 05:39:56;;;;;;;67.85;36.63;;;;;;;3.56;93.68;100694.41;5037459;28;20049;-68
2021/11/25 05:42:21;;;;;;;71.40;36.15;;;;;;;3.66;93.60;100705.38;5035125;28;20024;-67
2021/11/25 05:44:47;;;;;;;69.50;35.35;;;;;;;3.65;93.45;100701.00;5044706;28;20572;-67
2021/11/25 05:47:12;;;;;;;68.47;35.80;;;;;;;3.64;93.55;100699.31;5012925;28;20024;-67
2021/11/25 05:49:38;;;;;;;67.43;36.83;;;;;;;3.55;93.78;100684.72;5042996;28;20100;-67
2021/11/25 05:52:04;;;;;;;72.60;35.30;;;;;;;3.63;93.50;100694.91;5046843;28;20040;-67
2021/11/25 05:54:31;;;;;;;67.97;33.85;;;;;;;3.68;93.18;100700.84;5034833;28;20634;-68
2021/11/25 05:56:56;;;;;;;62.70;33.78;;;;;;;3.59;93.31;100685.41;5045276;28;20120;-67
2021/11/25 05:59:22;;;;;;;66.78;34.72;;;;;;;3.69;93.47;100713.16;5045207;28;20116;-68
2021/11/25 06:01:47;;;;;;;68.45;36.22;;;;;;;3.73;93.54;100717.34;5036019;28;20480;-67
2021/11/25 06:04:13;;;;;;;70.63;36.00;;;;;;;3.66;93.50;100706.22;5049559;28;20542;-67
2021/11/25 06:06:38;;;;;;;71.22;35.67;;;;;;;3.69;93.74;100707.84;5032121;28;20036;-68
2021/11/25 06:09:04;;;;;;;63.63;33.70;;;;;;;3.72;93.78;100711.22;5029632;28;20116;-67
2021/11/25 06:11:29;;;;;;;63.50;34.95;;;;;;;3.68;93.61;100695.53;5039998;28;20025;-68
2021/11/25 06:13:55;;;;;;;71.25;36.17;;;;;;;3.71;94.05;100698.88;5029463;28;20033;-68
2021/11/25 06:16:20;;;;;;;66.05;35.35;;;;;;;3.76;93.58;100703.94;5036462;28;20029;-68
2021/11/25 06:18:46;;;;;;;63.25;35.05;;;;;;;3.71;93.63;100695.38;5049449;28;20035;-68
2021/11/25 06:21:11;;;;;;;67.72;37.28;;;;;;;3.77;93.64;100705.66;5049193;28;20051;-68
2021/11/25 06:23:37;;;;;;;69.50;34.97;;;;;;;3.75;93.82;100699.56;5033592;28;20082;-68
2021/11/25 06:26:03;;;;;;;70.90;36.88;;;;;;;3.72;93.53;100690.00;5030652;28;20028;-68
2021/11/25 06:28:28;;;;;;;67.55;35.63;;;;;;;3.77;93.74;100698.53;5042473;28;20040;-68
2021/11/25 06:30:54;;;;;;;69.80;35.72;;;;;;;3.78;93.56;100688.81;5028671;28;20389;-68
2021/11/25 06:33:19;;;;;;;67.88;35.88;;;;;;;3.80;93.47;100693.06;5030028;28;20523;-68
2021/11/25 06:35:45;;;;;;;67.05;35.85;;;;;;;3.79;93.22;100691.38;5029136;28;20028;-68
2021/11/25 06:38:11;;;;;;;70.50;35.55;;;;;;;3.84;93.15;100702.56;5030592;28;20041;-68
2021/11/25 06:40:37;;;;;;;64.65;34.45;;;;;;;3.83;92.92;100692.91;5044585;28;20056;-67
2021/11/25 06:43:06;;;;;;;66.57;35.55;;;;;;;3.84;93.04;100684.00;5038204;28;20048;-68
2021/11/25 06:45:32;;;;;;;61.45;34.20;;;;;;;3.87;93.09;100686.50;5031361;28;20100;-68
2021/11/25 06:47:57;;;;;;;60.47;32.58;;;;;;;3.90;93.19;100688.97;5024912;28;20090;-68
2021/11/25 06:50:25;;;;;;;67.22;34.55;;;;;;;3.91;93.28;100688.06;5037046;28;20040;-68
2021/11/25 06:52:51;;;;;;;58.90;31.88;;;;;;;3.94;93.17;100687.03;5036575;28;20101;-68
2021/11/25 06:55:18;;;;;;;64.25;33.30;;;;;;;3.95;92.79;100675.47;5028305;28;20105;-68
2021/11/25 06:57:47;;;;;;;59.00;32.60;;;;;;;3.97;92.65;100682.38;5043635;28;20033;-68
2021/11/25 07:00:15;;;;;;;59.78;33.53;;;;;;;4.00;92.23;100682.22;5030613;28;20358;-68
2021/11/25 07:02:42;;;;;;;65.05;32.55;;;;;;;4.06;92.15;100691.63;5028392;28;20040;-68
2021/11/25 07:05:08;;;;;;;56.75;32.55;;;;;;;4.04;91.99;100677.63;5033549;28;20388;-68
2021/11/25 07:07:36;;;;;;;63.42;32.25;;;;;;;4.06;91.65;100673.94;5033682;28;20037;-68
2021/11/25 07:10:06;;;;;;;61.35;32.50;;;;;;;4.09;91.44;100668.44;5047915;28;20060;-68
2021/11/25 07:12:32;;;;;;;63.08;33.10;;;;;;;4.09;91.73;100664.94;5030934;28;20033;-68
2021/11/25 07:14:57;;;;;;;59.53;31.77;;;;;;;4.12;91.52;100667.41;5040234;28;20469;-68
2021/11/25 07:17:23;;;;;;;56.30;30.83;;;;;;;4.17;91.38;100670.69;5037704;28;20036;-68
2021/11/25 07:19:49;;;;;;;55.33;31.38;;;;;;;4.10;91.26;100656.06;5040459;28;20099;-68
2021/11/25 07:22:14;;;;;;;54.40;30.80;;;;;;;4.18;91.55;100661.75;5048037;28;20033;-68
2021/11/25 07:24:40;;;;;;;55.20;29.70;;;;;;;4.21;91.27;100673.09;5041122;28;20029;-68
2021/11/25 07:27:06;;;;;;;55.53;30.50;;;;;;;4.25;90.65;100661.34;5035693;28;20021;-68
2021/11/25 07:29:31;;;;;;;53.22;30.08;;;;;;;4.30;90.38;100664.59;5028860;28;20470;-68
2021/11/25 07:31:57;;;;;;;56.97;30.88;;;;;;;4.29;90.28;100660.22;5042580;28;20029;-68
2021/11/25 07:34:22;;;;;;;52.13;30.00;;;;;;;4.30;90.11;100645.16;5043776;28;20041;-68
2021/11/25 07:36:48;;;;;;;56.85;31.52;;;;;;;4.40;90.07;100649.88;5036816;28;20029;-68
2021/11/25 07:39:14;;;;;;;56.03;30.85;;;;;;;4.42;89.70;100649.78;5045145;28;20025;-67
2021/11/25 07:41:40;;;;;;;58.25;30.08;;;;;;;4.44;89.60;100647.88;5045778;28;20032;-68
2021/11/25 07:44:07;;;;;;;54.58;29.92;;;;;;;4.52;89.41;100653.59;5027664;28;20028;-68
2021/11/25 07:46:33;;;;;;;58.38;30.27;;;;;;;4.53;89.12;100648.22;5043281;28;20049;-68
2021/11/25 07:49:00;;;;;;;61.00;30.33;;;;;;;4.54;89.39;100636.63;5041017;28;20087;-68
2021/11/25 07:51:26;;;;;;;52.45;30.30;;;;;;;4.58;89.40;100639.97;5048070;28;20365;-68
2021/11/25 07:53:51;;;;;;;49.80;28.52;;;;;;;4.61;89.66;100640.63;5032858;28;20032;-68
2021/11/25 07:56:17;;;;;;;54.50;29.30;;;;;;;4.65;89.65;100641.31;5023231;28;20072;-68
2021/11/25 07:58:42;;;;;;;48.15;27.73;;;;;;;4.68;89.38;100636.66;5033004;28;20031;-68
2021/11/25 08:01:07;;;;;;;50.00;27.38;;;;;;;4.73;89.18;100633.75;5042752;28;20116;-67
2021/11/25 08:03:33;;;;;;;50.63;28.40;;;;;;;4.78;88.77;100635.19;5037437;28;20029;-67
2021/11/25 08:05:58;;;;;;;44.63;26.15;;;;;;;4.75;88.22;100624.72;5033734;28;20386;-68
2021/11/25 08:08:24;;;;;;;47.03;27.25;;;;;;;4.82;88.00;100621.72;5027798;28;20092;-67
2021/11/25 08:10:50;;;;;;;46.72;26.02;;;;;;;4.91;87.60;100634.47;5043238;28;20041;-68
2021/11/25 08:13:16;;;;;;;45.33;27.27;;;;;;;4.93;87.30;100625.44;5009625;28;20035;-67
2021/11/25 08:15:41;;;;;;;48.10;28.58;;;;;;;5.02;87.30;100624.03;5027487;28;20033;-67
2021/11/25 08:18:07;;;;;;;51.55;29.30;;;;;;;5.05;87.51;100623.84;5036085;28;20032;-68
2021/11/25 08:20:32;;;;;;;46.00;26.67;;;;;;;5.09;87.78;100625.41;5038787;28;20080;-68
2021/11/25 08:22:58;;;;;;;46.53;27.33;;;;;;;5.11;87.61;100619.03;5039381;28;20029;-68
2021/11/25 08:25:24;;;;;;;41.72;25.75;;;;;;;5.16;87.57;100624.06;5034481;28;20025;-68
2021/11/25 08:27:55;;;;;;;42.92;26.83;;;;;;;5.18;87.52;100616.84;5039405;28;20131;-68
2021/11/25 08:30:21;;;;;;;46.38;26.50;;;;;;;5.21;87.27;100611.34;5050909;28;20036;-68
2021/11/25 08:32:47;;;;;;;43.92;26.10;;;;;;;5.26;86.60;100611.94;5031401;28;20033;-67
2021/11/25 08:35:13;;;;;;;44.78;26.45;;;;;;;5.21;86.00;100588.28;5030972;28;20155;-68
2021/11/25 08:37:40;;;;;;;45.97;26.02;;;;;;;5.29;85.99;100604.59;5039888;28;20025;-67
2021/11/25 08:40:07;;;;;;;45.22;26.80;;;;;;;5.31;85.85;100605.38;5031516;28;20053;-68
2021/11/25 08:42:32;;;;;;;44.20;26.05;;;;;;;5.30;85.76;100593.03;5051267;28;20031;-68
2021/11/25 08:44:58;;;;;;;42.60;25.30;;;;;;;5.29;85.53;100575.34;5051050;28;20021;-68
2021/11/25 08:47:23;;;;;;;38.13;23.80;;;;;;;5.36;85.57;100587.34;5051156;28;20150;-67
2021/11/25 08:49:51;;;;;;;43.53;24.40;;;;;;;5.40;85.43;100572.88;5061104;28;21196;-68
2021/11/25 08:52:17;;;;;;;40.25;24.30;;;;;;;5.47;84.53;100563.56;5058021;28;20159;-68
2021/11/25 08:54:43;;;;;;;42.88;24.23;;;;;;;5.46;84.58;100567.19;5066725;28;20039;-68
2021/11/25 08:57:08;;;;;;;41.08;25.08;;;;;;;5.52;84.79;100564.16;5069620;28;20563;-68
2021/11/25 08:59:34;;;;;;;38.97;24.20;;;;;;;5.47;84.65;100552.06;5065435;28;20021;-68
2021/11/25 09:01:59;;;;;;;46.15;26.02;;;;;;;5.55;84.17;100547.97;5050485;28;20029;-68
2021/11/25 09:04:27;;;;;;;41.35;24.60;;;;;;;5.56;84.70;100547.03;5053655;28;20035;-67
2021/11/25 09:06:52;;;;;;;42.45;23.95;;;;;;;5.55;84.60;100534.66;5059372;28;20013;-68
2021/11/25 09:09:18;;;;;;;43.42;25.15;;;;;;;5.56;84.84;100523.09;5034891;28;20473;-68
2021/11/25 09:11:44;;;;;;;42.28;24.48;;;;;;;5.69;84.91;100520.47;5046058;28;20500;-67
2021/11/25 09:14:09;;;;;;;40.50;23.98;;;;;;;5.74;84.94;100519.22;5049644;28;20029;-67
2021/11/25 09:16:35;;;;;;;39.78;22.77;;;;;;;5.89;84.00;100512.94;5045958;28;20032;-68
2021/11/25 09:19:00;;;;;;;38.47;22.48;;;;;;;5.98;84.01;100512.34;5070133;28;20047;-68
2021/11/25 09:21:29;;;;;;;38.28;21.85;;;;;;;6.11;83.50;100510.59;5047901;28;20028;-67
2021/11/25 09:23:56;;;;;;;40.05;22.17;;;;;;;6.16;82.99;100500.47;5065336;28;20598;-68
2021/11/25 09:26:22;;;;;;;42.92;23.70;;;;;;;6.29;82.03;100506.69;5059898;28;20070;-68
2021/11/25 09:28:48;;;;;;;39.58;24.02;;;;;;;6.37;81.89;100498.19;5052021;28;20119;-69
2021/11/25 09:31:15;;;;;;;39.90;23.55;;;;;;;6.53;81.41;100504.16;5062281;28;20112;-68
2021/11/25 09:33:42;;;;;;;39.35;22.58;;;;;;;6.55;81.08;100481.78;5060639;28;20445;-69
2021/11/25 09:36:08;;;;;;;38.30;23.30;;;;;;;6.64;81.15;100482.97;5049602;28;20024;-68
2021/11/25 09:38:34;;;;;;;38.00;23.45;;;;;;;6.66;80.94;100478.38;5039582;28;20025;-68
2021/11/25 09:41:01;;;;;;;37.03;22.60;;;;;;;6.78;80.52;100483.72;5050700;28;20040;-68
2021/11/25 09:43:27;;;;;;;38.75;23.83;;;;;;;6.72;80.84;100465.50;5047166;28;20040;-69
2021/11/25 09:45:53;;;;;;;41.85;23.67;;;;;;;6.83;80.67;100464.72;5049043;28;20075;-69
2021/11/25 09:48:21;;;;;;;40.33;22.92;;;;;;;6.89;80.74;100470.50;5047795;28;20035;-68
2021/11/25 09:50:49;;;;;;;39.10;23.15;;;;;;;6.86;80.15;100462.72;5013118;28;20088;-69
2021/11/25 09:53:17;;;;;;;41.13;23.10;;;;;;;6.94;80.51;100471.00;5037179;28;20675;-68
2021/11/25 09:55:46;;;;;;;35.63;23.13;;;;;;;6.96;80.38;100463.75;5030609;28;20106;-68
2021/11/25 09:58:13;;;;;;;37.55;23.65;;;;;;;6.91;80.79;100447.22;5030025;28;20025;-68
2021/11/25 10:00:49;;;;;;;39.70;23.38;;;;;;;6.96;81.54;100453.09;5035695;28;20033;-69
2021/11/25 10:03:18;;;;;;;35.15;21.98;;;;;;;6.99;81.47;100449.34;5037484;28;20025;-68
2021/11/25 10:05:47;;;;;;;36.72;23.23;;;;;;;6.98;82.46;100431.66;5048683;28;20059;-68
2021/11/25 10:08:22;;;;;;;36.60;22.52;;;;;;;6.92;82.20;100414.28;5042822;28;20461;-68
2021/11/25 10:10:57;;;;;;;38.55;23.67;;;;;;;7.04;83.01;100428.56;5021667;28;20041;-69
2021/11/25 10:13:26;;;;;;;37.35;22.38;;;;;;;7.02;82.73;100411.81;5037422;28;20039;-68
2021/11/25 10:15:56;;;;;;;34.80;22.33;;;;;;;7.07;82.94;100408.81;5018817;28;20070;-69
2021/11/25 10:18:22;;;;;;;39.65;23.08;;;;;;;7.14;83.36;100424.28;5046169;28;20024;-68
2021/11/25 10:20:51;;;;;;;36.92;23.25;;;;;;;7.15;82.91;100417.13;5014402;28;20030;-68
2021/11/25 10:23:29;;;;;;;36.00;21.30;;;;;;;7.22;82.52;100427.22;5047538;28;20032;-69
2021/11/25 10:26:10;;;;;;;34.15;21.52;;;;;;;7.26;83.12;100414.53;5046173;28;20021;-69
2021/11/25 10:28:39;;;;;;;35.85;21.80;;;;;;;7.31;83.16;100407.03;5027970;28;20428;-68
2021/11/25 10:31:07;;;;;;;35.90;21.60;;;;;;;7.30;82.54;100394.66;5041630;28;20033;-68
2021/11/25 10:33:47;;;;;;;33.22;21.92;;;;;;;7.40;82.10;100409.03;5026341;28;20082;-68
2021/11/25 10:36:27;;;;;;;37.17;22.13;;;;;;;7.45;82.84;100413.06;5037334;28;20125;-69
2021/11/25 10:39:07;;;;;;;32.17;20.42;;;;;;;7.45;81.94;100380.22;5044633;28;20338;-69
2021/11/25 10:41:35;;;;;;;32.55;22.08;;;;;;;7.54;81.28;100391.03;5042321;28;20033;-69
2021/11/25 10:44:08;;;;;;;34.30;22.27;;;;;;;7.64;80.93;100385.88;5036632;28;20021;-69
2021/11/25 10:46:59;;;;;;;34.05;21.10;;;;;;;7.66;81.71;100386.59;5046333;28;20079;-69
2021/11/25 10:49:34;;;;;;;37.72;21.55;;;;;;;7.72;80.76;100386.16;5023913;28;20064;-69
2021/11/25 10:52:01;;;;;;;33.97;21.48;;;;;;;7.74;80.90;100384.22;5040135;28;20071;-70
2021/11/25 10:54:27;;;;;;;35.67;21.60;;;;;;;7.78;80.97;100375.88;5028435;28;20120;-69
2021/11/25 10:56:57;;;;;;;33.70;21.90;;;;;;;7.84;81.17;100385.22;5028411;28;20406;-69
2021/11/25 10:59:48;;;;;;;31.75;20.98;;;;;;;7.87;80.70;100374.31;5031935;28;20477;-69
2021/11/25 11:02:23;;;;;;;32.45;21.52;;;;;;;7.90;80.59;100379.44;5033723;28;20407;-69
2021/11/25 11:04:50;;;;;;;33.75;21.98;;;;;;;7.93;80.88;100376.53;5037924;28;20025;-69
2021/11/25 11:07:24;;;;;;;31.58;20.60;;;;;;;7.99;80.94;100363.56;5035499;28;20017;-69
2021/11/25 11:09:50;;;;;;;35.50;21.17;;;;;;;7.98;80.26;100353.84;5033705;28;20032;-69
2021/11/25 11:12:24;;;;;;;38.95;22.38;;;;;;;8.05;80.57;100348.88;5045573;28;20256;-69
2021/11/25 11:14:54;;;;;;;38.60;24.08;;;;;;;8.07;81.12;100342.47;5028075;28;20414;-69
2021/11/25 11:17:34;;;;;;;35.20;21.50;;;;;;;8.09;80.39;100340.50;5040439;28;20028;-69
2021/11/25 11:20:05;;;;;;;34.17;20.23;;;;;;;8.22;79.91;100337.78;5031759;28;20025;-69